createdAt,value
2019-02-02T00:00:03.364Z,88.79
2019-02-02T00:05:02.371Z,88.71
2019-02-02T00:10:02.819Z,88.69
2019-02-02T00:15:03.270Z,88.68
2019-02-02T00:20:02.601Z,88.69
2019-02-02T00:25:03.063Z,88.7
2019-02-02T00:30:02.478Z,88.73
2019-02-02T00:35:02.896Z,88.78
2019-02-02T00:40:03.295Z,88.87
2019-02-02T00:45:02.637Z,88.85
2019-02-02T00:50:02.988Z,88.79
2019-02-02T00:55:02.415Z,88.72
2019-02-02T01:00:02.844Z,88.72
2019-02-02T01:05:02.679Z,88.76
2019-02-02T01:10:03.226Z,88.78
2019-02-02T01:15:02.547Z,88.79
2019-02-02T01:20:02.990Z,88.83
2019-02-02T01:25:02.408Z,88.95
2019-02-02T01:30:02.849Z,89.0
2019-02-02T01:35:03.219Z,88.92
2019-02-02T01:40:02.737Z,88.88
2019-02-02T01:45:03.170Z,88.87
2019-02-02T01:50:02.561Z,88.89
2019-02-02T01:55:02.915Z,88.93
2019-02-02T02:00:03.259Z,88.96
2019-02-02T02:05:02.666Z,88.98
2019-02-02T02:10:03.208Z,89.06
2019-02-02T02:15:02.532Z,89.09
2019-02-02T02:20:02.871Z,89.04
2019-02-02T02:25:03.219Z,88.99
2019-02-02T02:30:02.641Z,88.99
2019-02-02T02:35:03.107Z,88.99
2019-02-02T02:40:02.604Z,88.99
2019-02-02T02:45:02.944Z,89.02
2019-02-02T02:50:03.287Z,89.01
2019-02-02T02:55:02.701Z,89.09
2019-02-02T03:00:03.048Z,89.15
2019-02-02T03:05:02.386Z,89.08
2019-02-02T03:10:02.853Z,89.02
2019-02-02T03:15:03.256Z,88.98
2019-02-02T03:20:02.661Z,88.98
2019-02-02T03:25:02.190Z,89.03
2019-02-02T03:30:02.634Z,89.04
2019-02-02T03:35:03.110Z,89.06
2019-02-02T03:40:02.639Z,89.07
2019-02-02T03:45:03.035Z,89.19
2019-02-02T03:50:02.455Z,89.17
2019-02-02T03:55:02.796Z,89.06
2019-02-02T04:00:03.139Z,88.99
2019-02-02T04:05:02.547Z,89.0
2019-02-02T04:10:03.003Z,89.0
2019-02-02T04:15:02.420Z,89.04
2019-02-02T04:20:02.761Z,89.03
2019-02-02T04:25:03.101Z,89.04
2019-02-02T04:30:02.516Z,89.12
2019-02-02T04:35:02.868Z,89.2
2019-02-02T04:40:03.309Z,89.11
2019-02-02T04:45:02.717Z,89.04
2019-02-02T04:50:03.099Z,89.01
2019-02-02T04:55:02.485Z,89.03
2019-02-02T05:00:02.933Z,89.06
2019-02-02T05:05:03.372Z,89.1
2019-02-02T05:10:02.784Z,89.1
2019-02-02T05:15:03.148Z,89.12
2019-02-02T05:20:02.548Z,89.2
2019-02-02T05:25:02.907Z,89.23
2019-02-02T05:30:03.029Z,89.16
2019-02-02T05:35:02.464Z,89.11
2019-02-02T05:40:02.891Z,89.08
2019-02-02T05:45:03.463Z,89.1
2019-02-02T05:50:02.813Z,89.09
2019-02-02T05:55:03.196Z,89.12
2019-02-02T06:00:02.612Z,89.13
2019-02-02T06:05:03.011Z,89.21
2019-02-02T06:10:02.413Z,89.28
2019-02-02T06:15:02.836Z,89.24
2019-02-02T06:20:03.305Z,89.18
2019-02-02T06:25:02.713Z,89.11
2019-02-02T06:30:04.489Z,89.13
2019-02-02T06:35:03.730Z,89.14
2019-02-02T06:40:02.388Z,89.14
2019-02-02T06:45:02.715Z,89.17
2019-02-02T06:50:03.196Z,89.18
2019-02-02T06:55:02.602Z,89.28
2019-02-02T07:00:03.012Z,89.32
2019-02-02T07:05:02.436Z,89.22
2019-02-02T07:10:02.843Z,89.17
2019-02-02T07:15:03.234Z,89.18
2019-02-02T07:20:02.572Z,89.21
2019-02-02T07:25:02.990Z,89.2
2019-02-02T07:30:05.057Z,89.21
2019-02-02T07:35:02.641Z,89.21
2019-02-02T07:40:03.084Z,89.23
2019-02-02T07:45:02.663Z,89.35
2019-02-02T07:50:03.053Z,89.33
2019-02-02T07:55:02.472Z,89.29
2019-02-02T08:00:02.885Z,89.26
2019-02-02T08:05:03.252Z,89.27
2019-02-02T08:10:02.667Z,89.29
2019-02-02T08:15:03.036Z,89.33
2019-02-02T08:20:02.433Z,89.31
2019-02-02T08:25:02.778Z,89.32
2019-02-02T08:30:03.109Z,89.37
2019-02-02T08:35:02.530Z,89.48
2019-02-02T08:40:02.977Z,89.44
2019-02-02T08:45:02.406Z,89.34
2019-02-02T08:50:02.857Z,89.3
2019-02-02T08:55:03.372Z,89.33
2019-02-02T09:00:02.802Z,89.34
2019-02-02T09:05:03.591Z,89.37
2019-02-02T09:10:02.197Z,89.4
2019-02-02T09:15:02.629Z,89.44
2019-02-02T09:20:03.085Z,89.48
2019-02-02T09:25:02.451Z,89.58
2019-02-02T09:30:02.903Z,89.54
2019-02-02T09:35:03.360Z,89.43
2019-02-02T09:40:02.862Z,89.4
2019-02-02T09:45:03.209Z,89.41
2019-02-02T09:50:02.623Z,89.42
2019-02-02T09:55:02.970Z,89.42
2019-02-02T10:00:02.386Z,89.45
2019-02-02T10:05:02.830Z,89.46
2019-02-02T10:10:03.342Z,89.46
2019-02-02T10:15:02.721Z,89.6
2019-02-02T10:20:03.069Z,89.61
2019-02-02T10:25:02.457Z,89.52
2019-02-02T10:30:02.792Z,89.47
2019-02-02T10:35:03.141Z,89.46
2019-02-02T10:40:02.555Z,89.45
2019-02-02T10:45:03.005Z,89.47
2019-02-02T10:50:02.421Z,89.49
2019-02-02T10:55:02.878Z,89.5
2019-02-02T11:00:03.320Z,89.51
2019-02-02T11:05:02.716Z,89.55
2019-02-02T11:10:03.396Z,89.6
2019-02-02T11:15:02.857Z,89.49
2019-02-02T11:20:03.318Z,89.42
2019-02-02T11:25:02.666Z,89.38
2019-02-02T11:30:03.265Z,89.37
2019-02-02T11:35:02.733Z,89.4
2019-02-02T11:40:03.135Z,89.43
2019-02-02T11:45:02.580Z,89.48
2019-02-02T11:50:03.029Z,89.51
2019-02-02T11:55:02.485Z,89.54
2019-02-02T12:00:02.892Z,89.6
2019-02-02T12:05:02.530Z,89.62
2019-02-02T12:10:02.954Z,89.53
2019-02-02T12:15:03.458Z,89.44
2019-02-02T12:20:02.808Z,89.44
2019-02-02T12:25:03.163Z,89.43
2019-02-02T12:30:02.572Z,89.47
2019-02-02T12:35:04.769Z,89.5
2019-02-02T12:40:03.347Z,89.52
2019-02-02T12:45:02.924Z,89.58
2019-02-02T12:50:03.330Z,89.64
2019-02-02T12:55:02.750Z,89.72
2019-02-02T13:00:03.112Z,89.72
2019-02-02T13:05:02.545Z,89.57
2019-02-02T13:10:02.952Z,89.52
2019-02-02T13:15:03.447Z,89.46
2019-02-02T13:20:02.807Z,89.47
2019-02-02T13:25:03.204Z,89.45
2019-02-02T13:30:02.543Z,89.45
2019-02-02T13:35:02.886Z,89.44
2019-02-02T13:40:03.759Z,89.43
2019-02-02T13:45:03.235Z,89.47
2019-02-02T13:50:02.588Z,89.52
2019-02-02T13:55:02.998Z,89.48
2019-02-02T14:00:02.404Z,89.42
2019-02-02T14:05:02.819Z,89.36
2019-02-02T14:10:03.260Z,89.36
2019-02-02T14:15:02.678Z,89.37
2019-02-02T14:20:03.009Z,89.37
2019-02-02T14:25:02.458Z,89.37
2019-02-02T14:30:02.804Z,89.4
2019-02-02T14:35:03.282Z,89.44
2019-02-02T14:40:01.892Z,89.49
2019-02-02T14:45:03.286Z,89.54
2019-02-02T14:50:02.712Z,89.51
2019-02-02T14:55:03.041Z,89.45
2019-02-02T15:00:02.459Z,89.46
2019-02-02T15:05:02.800Z,89.47
2019-02-02T15:10:03.426Z,89.46
2019-02-02T15:15:05.745Z,89.43
2019-02-02T15:20:03.315Z,89.43
2019-02-02T15:25:02.731Z,89.47
2019-02-02T15:30:03.182Z,89.56
2019-02-02T15:35:02.588Z,89.52
2019-02-02T15:40:03.038Z,89.5
2019-02-02T15:45:02.443Z,89.42
2019-02-02T15:50:02.795Z,89.39
2019-02-02T15:55:03.143Z,89.37
2019-02-02T16:00:02.548Z,89.38
2019-02-02T16:05:04.555Z,89.39
2019-02-02T16:10:03.144Z,89.4
2019-02-02T16:15:02.581Z,89.46
2019-02-02T16:20:03.038Z,89.56
2019-02-02T16:25:02.465Z,89.52
2019-02-02T16:30:02.853Z,89.45
2019-02-02T16:35:03.311Z,89.42
2019-02-02T16:40:02.720Z,89.43
2019-02-02T16:45:03.069Z,89.42
2019-02-02T16:50:02.482Z,89.41
2019-02-02T16:55:02.938Z,89.47
2019-02-02T17:00:03.392Z,89.49
2019-02-02T17:05:02.789Z,89.58
2019-02-02T17:10:03.233Z,89.63
2019-02-02T17:15:02.657Z,89.55
2019-02-02T17:20:03.096Z,89.5
2019-02-02T17:25:02.423Z,89.47
2019-02-02T17:30:02.895Z,89.48
2019-02-02T17:35:03.371Z,89.49
2019-02-02T17:40:02.817Z,89.5
2019-02-02T17:45:03.164Z,89.55
2019-02-02T17:50:02.585Z,89.55
2019-02-02T17:55:03.029Z,89.68
2019-02-02T18:00:02.445Z,89.7
2019-02-02T18:05:02.886Z,89.61
2019-02-02T18:10:03.332Z,89.57
2019-02-02T18:15:02.761Z,89.6
2019-02-02T18:20:03.198Z,89.56
2019-02-02T18:25:02.641Z,89.58
2019-02-02T18:30:03.062Z,89.61
2019-02-02T18:35:02.494Z,89.62
2019-02-02T18:40:02.926Z,89.64
2019-02-02T18:45:03.375Z,89.75
2019-02-02T18:50:02.774Z,89.74
2019-02-02T18:55:03.153Z,89.65
2019-02-02T19:00:02.551Z,89.65
2019-02-02T19:05:04.244Z,89.67
2019-02-02T19:10:02.425Z,89.67
2019-02-02T19:15:02.874Z,89.68
2019-02-02T19:20:03.294Z,89.69
2019-02-02T19:25:02.735Z,89.69
2019-02-02T19:30:03.164Z,89.78
2019-02-02T19:35:02.584Z,89.76
2019-02-02T19:40:03.024Z,89.67
2019-02-02T19:45:02.445Z,89.62
2019-02-02T19:50:02.870Z,89.63
2019-02-02T19:55:14.023Z,89.66
2019-02-02T20:00:03.191Z,89.65
2019-02-02T20:05:02.563Z,89.64
2019-02-02T20:10:03.009Z,89.64
2019-02-02T20:15:02.446Z,89.73
2019-02-02T20:20:02.904Z,89.81
2019-02-02T20:25:03.316Z,89.74
2019-02-02T20:30:02.741Z,89.68
2019-02-02T20:35:03.183Z,89.67
2019-02-02T20:40:02.618Z,89.71
2019-02-02T20:45:02.989Z,89.69
2019-02-02T20:50:02.367Z,89.67
2019-02-02T20:55:02.817Z,89.62
2019-02-02T21:00:03.269Z,89.62
2019-02-02T21:05:02.714Z,89.72
2019-02-02T21:10:03.211Z,89.74
2019-02-02T21:15:02.636Z,89.64
2019-02-02T21:20:03.111Z,89.63
2019-02-02T21:25:02.508Z,89.58
2019-02-02T21:30:02.928Z,89.58
2019-02-02T21:35:03.391Z,89.57
2019-02-02T21:40:02.789Z,89.59
2019-02-02T21:45:03.244Z,89.62
2019-02-02T21:50:02.654Z,89.71
2019-02-02T21:55:03.013Z,89.76
2019-02-02T22:00:02.420Z,89.7
2019-02-02T22:05:02.868Z,89.63
2019-02-02T22:10:03.331Z,89.63
2019-02-02T22:15:02.735Z,89.66
2019-02-02T22:20:02.457Z,89.67
2019-02-02T22:25:02.901Z,89.69
2019-02-02T22:30:03.359Z,89.67
2019-02-02T22:35:02.787Z,89.73
2019-02-02T22:40:02.503Z,89.82
2019-02-02T22:45:03.144Z,89.81
2019-02-02T22:50:02.538Z,89.73
2019-02-02T22:55:02.896Z,89.7
2019-02-02T23:00:03.261Z,89.72
2019-02-02T23:05:02.644Z,89.75
2019-02-02T23:10:01.672Z,89.78
2019-02-02T23:15:03.031Z,89.77
2019-02-02T23:20:02.448Z,89.77
2019-02-02T23:25:02.889Z,89.85
2019-02-02T23:30:02.528Z,89.9
2019-02-02T23:35:03.261Z,89.77
2019-02-02T23:40:02.670Z,89.73
2019-02-02T23:45:03.027Z,89.72
2019-02-02T23:50:02.449Z,89.7
2019-02-02T23:55:02.886Z,89.68
